Time;durP1;ratioP1;P1;durP2;ratioP2;P2;SDS_P1;SDS_P2;PMS_P1;PMS_P2;Temp;Humidity;BMP_temperature;BMP_pressure;BME280_temperature;BME280_humidity;BME280_pressure;Samples;Min_cycle;Max_cycle;Signal;HPM_P1;HPM_P2
2020/12/31 00:00:10;;;;;;;0.70;0.50;;;;;;;3.76;94.37;99887.28;5034016;28;20877;-78
2020/12/31 00:02:37;;;;;;;0.40;0.30;;;;;;;3.79;94.52;99902.00;5034000;28;20459;-78
2020/12/31 00:05:03;;;;;;;0.40;0.30;;;;;;;3.85;94.08;99895.56;5034405;28;20959;-78
2020/12/31 00:07:30;;;;;;;0.93;0.53;;;;;;;3.91;93.64;99901.72;5033631;28;20501;-78
2020/12/31 00:09:56;;;;;;;0.47;0.40;;;;;;;3.97;93.35;99909.44;5035528;28;20451;-78
2020/12/31 00:12:22;;;;;;;0.60;0.47;;;;;;;4.03;93.21;99892.28;5037685;28;20493;-78
2020/12/31 00:14:48;;;;;;;7.50;1.07;;;;;;;4.06;93.41;99896.28;5037300;28;20495;-78
2020/12/31 00:17:14;;;;;;;0.67;0.40;;;;;;;4.09;93.03;99900.28;5034738;28;20447;-78
2020/12/31 00:19:41;;;;;;;0.40;0.30;;;;;;;4.07;92.80;99897.06;5033666;28;20803;-78
2020/12/31 00:22:08;;;;;;;0.60;0.40;;;;;;;4.10;92.76;99904.56;5033258;28;20451;-78
2020/12/31 00:24:34;;;;;;;1.33;0.47;;;;;;;4.08;92.57;99909.41;5033683;28;20435;-78
2020/12/31 00:27:00;;;;;;;0.40;0.30;;;;;;;4.03;92.80;99903.00;5033380;28;20446;-77
2020/12/31 00:29:26;;;;;;;0.57;0.40;;;;;;;3.99;93.06;99917.22;5033673;28;20474;-78
2020/12/31 00:31:53;;;;;;;0.40;0.30;;;;;;;3.95;93.27;99918.84;5033728;28;20967;-78
2020/12/31 00:34:19;;;;;;;3.40;0.90;;;;;;;3.95;93.43;99913.47;5033913;28;20510;-78
2020/12/31 00:36:47;;;;;;;0.50;0.40;;;;;;;3.94;93.74;99915.38;5033876;28;20447;-78
2020/12/31 00:39:14;;;;;;;0.40;0.30;;;;;;;3.93;93.65;99912.94;5033583;28;20459;-78
2020/12/31 00:41:40;;;;;;;0.40;0.30;;;;;;;3.97;93.55;99924.72;5033980;28;20538;-78
2020/12/31 00:44:06;;;;;;;0.50;0.40;;;;;;;4.00;93.63;99924.19;5034077;28;20446;-78
2020/12/31 00:46:32;;;;;;;5.80;1.50;;;;;;;4.01;93.61;99931.13;5034985;28;20932;-78
2020/12/31 00:48:58;;;;;;;0.40;0.27;;;;;;;4.00;93.92;99926.84;5035747;28;20451;-78
2020/12/31 00:51:25;;;;;;;0.40;0.20;;;;;;;4.00;94.03;99924.19;5036697;28;20458;-78
2020/12/31 00:53:56;;;;;;;0.40;0.40;;;;;;;4.06;93.79;99920.38;5034400;28;20506;-78
2020/12/31 00:56:23;;;;;;;0.50;0.47;;;;;;;4.10;93.59;99932.16;5033423;28;20439;-78
2020/12/31 00:58:49;;;;;;;0.93;0.77;;;;;;;4.08;93.56;99928.19;5033785;28;21000;-78
2020/12/31 01:01:15;;;;;;;1.03;0.40;;;;;;;4.04;93.61;99926.03;5034521;28;20443;-78
2020/12/31 01:03:42;;;;;;;1.90;0.83;;;;;;;4.10;93.47;99934.84;5034357;28;20451;-78
2020/12/31 01:06:08;;;;;;;0.50;0.50;;;;;;;4.12;93.67;99934.56;5033715;28;20449;-78
2020/12/31 01:08:34;;;;;;;2.50;1.37;;;;;;;4.15;93.40;99942.88;5037067;28;20486;-78
2020/12/31 01:11:02;;;;;;;0.90;0.60;;;;;;;4.19;93.16;99943.91;5036942;28;20462;-78
2020/12/31 01:13:28;;;;;;;0.47;0.40;;;;;;;4.16;93.26;99939.13;5036511;28;20483;-77
2020/12/31 01:15:54;;;;;;;1.00;0.40;;;;;;;4.19;93.21;99941.25;5036451;28;20438;-78
2020/12/31 01:18:20;;;;;;;0.40;0.30;;;;;;;4.17;93.34;99940.72;5037192;28;20524;-78
2020/12/31 01:20:47;;;;;;;0.40;0.30;;;;;;;4.23;92.97;99936.94;5036743;28;20470;-78
2020/12/31 01:23:13;;;;;;;0.40;0.30;;;;;;;4.20;92.88;99948.19;5037393;28;20427;-77
2020/12/31 01:25:39;;;;;;;0.40;0.30;;;;;;;4.21;92.85;99938.31;5037385;28;20453;-78
2020/12/31 01:28:06;;;;;;;0.40;0.30;;;;;;;4.24;92.40;99938.53;5037148;28;20474;-78
2020/12/31 01:30:32;;;;;;;0.40;0.30;;;;;;;4.25;92.19;99948.22;5037113;28;20450;-78
2020/12/31 01:32:58;;;;;;;0.47;0.40;;;;;;;4.28;92.14;99955.69;5036734;28;20443;-78
2020/12/31 01:35:25;;;;;;;0.40;0.30;;;;;;;4.23;92.23;99944.97;5036897;28;20496;-78
2020/12/31 01:37:51;;;;;;;0.40;0.40;;;;;;;4.28;92.30;99950.31;5036760;28;20467;-78
2020/12/31 01:40:17;;;;;;;0.40;0.30;;;;;;;4.26;92.47;99955.16;5036697;28;20450;-78
2020/12/31 01:42:44;;;;;;;1.53;0.77;;;;;;;4.25;92.70;99958.94;5036621;28;20810;-78
2020/12/31 01:45:11;;;;;;;1.70;1.00;;;;;;;4.26;92.59;99955.16;5036707;28;20948;-78
2020/12/31 01:47:38;;;;;;;1.47;0.50;;;;;;;4.25;92.48;99966.97;5036614;28;20455;-78
2020/12/31 01:50:05;;;;;;;0.40;0.30;;;;;;;4.28;92.34;99957.56;5036157;28;20820;-78
2020/12/31 01:52:31;;;;;;;1.23;1.13;;;;;;;4.30;92.45;99953.53;5036233;28;20443;-78
2020/12/31 01:55:00;;;;;;;0.60;0.50;;;;;;;4.33;92.35;99964.78;5035726;28;20479;-78
2020/12/31 01:57:27;;;;;;;0.40;0.30;;;;;;;4.33;92.27;99962.09;5036017;28;20474;-78
2020/12/31 01:59:54;;;;;;;0.40;0.30;;;;;;;4.32;92.59;99952.47;5036500;28;20443;-78
2020/12/31 02:02:21;;;;;;;0.70;0.50;;;;;;;4.31;92.19;99959.69;5036364;28;20443;-78
2020/12/31 02:04:50;;;;;;;1.80;1.70;;;;;;;4.25;93.08;99958.09;5036142;28;20820;-77
2020/12/31 02:07:16;;;;;;;0.80;0.80;;;;;;;4.27;92.58;99962.13;5036473;28;20530;-78
2020/12/31 02:09:43;;;;;;;1.03;0.60;;;;;;;4.25;92.43;99966.97;5036236;28;20809;-78
2020/12/31 02:12:09;;;;;;;0.87;0.67;;;;;;;4.29;92.82;99968.03;5035913;28;20517;-78
2020/12/31 02:14:35;;;;;;;0.50;0.40;;;;;;;4.30;92.45;99966.16;5035963;28;20980;-78
2020/12/31 02:17:02;;;;;;;1.00;0.70;;;;;;;4.33;92.10;99970.13;5036060;28;20447;-78
2020/12/31 02:19:29;;;;;;;0.40;0.30;;;;;;;4.32;92.28;99973.91;5035733;28;20455;-78
2020/12/31 02:21:56;;;;;;;0.50;0.40;;;;;;;4.30;92.34;99974.97;5035559;28;20459;-78
2020/12/31 02:24:22;;;;;;;0.40;0.40;;;;;;;4.27;92.44;99967.47;5036274;28;20447;-78
2020/12/31 02:26:50;;;;;;;0.40;0.30;;;;;;;4.26;92.42;99965.88;5035778;28;20434;-78
2020/12/31 02:29:17;;;;;;;3.80;1.23;;;;;;;4.32;92.43;99969.34;5035451;28;20492;-78
2020/12/31 02:31:45;;;;;;;1.67;1.57;;;;;;;4.33;92.24;99972.81;5035576;28;20485;-78
2020/12/31 02:34:11;;;;;;;1.07;0.60;;;;;;;4.27;92.29;99972.84;5035620;28;20487;-78
2020/12/31 02:36:39;;;;;;;0.60;0.40;;;;;;;4.30;92.43;99966.16;5035921;28;20940;-78
2020/12/31 02:39:07;;;;;;;0.80;0.80;;;;;;;4.30;92.30;99966.94;5035564;28;20467;-78
2020/12/31 02:41:34;;;;;;;0.50;0.40;;;;;;;4.35;92.15;99970.69;5035129;28;20446;-78
2020/12/31 02:44:01;;;;;;;0.60;0.50;;;;;;;4.35;91.69;99970.69;5036176;28;20493;-78
2020/12/31 02:46:27;;;;;;;2.20;1.80;;;;;;;4.36;91.65;99974.97;5036192;28;20446;-78
2020/12/31 02:48:54;;;;;;;1.93;0.97;;;;;;;4.35;91.77;99968.81;5035393;28;20466;-78
2020/12/31 02:51:21;;;;;;;0.40;0.30;;;;;;;4.40;91.64;99970.66;5036177;28;20458;-78
2020/12/31 02:53:47;;;;;;;0.50;0.43;;;;;;;4.40;91.57;99971.44;5037837;28;20483;-78
2020/12/31 02:56:16;;;;;;;0.40;0.20;;;;;;;4.40;91.86;99976.00;5038210;28;20470;-78
2020/12/31 02:58:43;;;;;;;0.50;0.40;;;;;;;4.44;91.89;99969.03;5042924;22;21003;-78
2020/12/31 03:01:10;;;;;;;0.60;0.43;;;;;;;4.44;91.88;99977.06;5035439;28;20450;-77
2020/12/31 03:03:36;;;;;;;2.10;0.93;;;;;;;4.45;92.16;99970.63;5035145;28;20450;-77
2020/12/31 03:06:03;;;;;;;0.40;0.30;;;;;;;4.47;91.52;99981.88;5034503;28;20450;-77
2020/12/31 03:08:30;;;;;;;0.93;0.60;;;;;;;4.44;91.64;99979.75;5044435;28;20471;-77
2020/12/31 03:10:56;;;;;;;0.90;0.50;;;;;;;4.45;91.91;99981.34;5054144;28;20973;-77
2020/12/31 03:13:24;;;;;;;0.40;0.30;;;;;;;4.48;91.93;99983.50;5054115;28;20486;-77
2020/12/31 03:15:51;;;;;;;0.40;0.30;;;;;;;4.43;91.84;99976.28;5054258;28;20950;-77
2020/12/31 03:18:17;;;;;;;0.40;0.30;;;;;;;4.46;91.82;99981.06;5053379;28;20473;-77
2020/12/31 03:20:44;;;;;;;0.50;0.50;;;;;;;4.49;91.36;99979.72;5053715;28;20468;-77
2020/12/31 03:23:14;;;;;;;0.40;0.30;;;;;;;4.45;91.49;99984.03;5054624;28;20540;-77
2020/12/31 03:25:41;;;;;;;0.40;0.30;;;;;;;4.45;90.93;99982.16;5054435;28;20442;-77
2020/12/31 03:28:07;;;;;;;0.40;0.30;;;;;;;4.44;91.02;99982.44;5054897;28;20484;-77
2020/12/31 03:30:36;;;;;;;1.40;0.60;;;;;;;4.45;90.75;99981.34;5053587;28;20442;-77
2020/12/31 03:33:02;;;;;;;0.40;0.30;;;;;;;4.46;90.63;99981.06;5054260;28;20450;-77
2020/12/31 03:35:29;;;;;;;0.40;0.30;;;;;;;4.44;91.15;99971.72;5054325;28;20485;-77
2020/12/31 03:37:55;;;;;;;3.37;1.00;;;;;;;4.45;90.77;99973.31;5054391;28;20845;-77
2020/12/31 03:40:22;;;;;;;0.40;0.30;;;;;;;4.46;91.13;99982.94;5054149;28;20473;-78
2020/12/31 03:42:48;;;;;;;0.80;0.67;;;;;;;4.44;91.16;99971.72;5054101;28;20441;-77
2020/12/31 03:45:15;;;;;;;1.40;1.30;;;;;;;4.42;91.15;99977.31;5053717;28;20985;-77
2020/12/31 03:47:42;;;;;;;1.37;1.00;;;;;;;4.43;91.23;99980.84;5054162;28;20450;-77
2020/12/31 03:50:09;;;;;;;0.40;0.30;;;;;;;4.45;91.24;99978.66;5054153;28;20447;-77
2020/12/31 03:52:35;;;;;;;0.80;0.80;;;;;;;4.49;91.25;99985.09;5053921;28;20446;-77
2020/12/31 03:55:01;;;;;;;0.40;0.40;;;;;;;4.49;91.00;99979.72;5053592;28;20488;-77
2020/12/31 03:57:27;;;;;;;0.50;0.43;;;;;;;4.47;91.58;99976.50;5053722;28;20438;-77
2020/12/31 03:59:54;;;;;;;2.10;0.93;;;;;;;4.47;92.07;99981.88;5053602;28;20839;-77
2020/12/31 04:02:20;;;;;;;0.40;0.30;;;;;;;4.52;91.54;99979.97;5052607;28;20446;-77
2020/12/31 04:04:47;;;;;;;0.40;0.30;;;;;;;4.48;92.05;99978.13;5054295;28;20442;-77
2020/12/31 04:07:13;;;;;;;0.40;0.30;;;;;;;4.48;91.37;99976.25;5053722;28;20453;-77
2020/12/31 04:09:39;;;;;;;0.40;0.30;;;;;;;4.50;91.46;99975.97;5053903;28;20492;-77
2020/12/31 04:12:06;;;;;;;2.20;0.60;;;;;;;4.52;91.81;99974.63;5053901;28;20451;-78
2020/12/31 04:14:32;;;;;;;0.40;0.30;;;;;;;4.53;91.95;99975.41;5053638;28;20492;-78
2020/12/31 04:16:58;;;;;;;0.40;0.30;;;;;;;4.57;91.67;99981.03;5053719;28;20441;-78
2020/12/31 04:19:24;;;;;;;0.40;0.40;;;;;;;4.54;91.90;99987.75;5054030;28;20476;-78
2020/12/31 04:21:53;;;;;;;0.60;0.60;;;;;;;4.53;91.56;99989.63;5053318;28;20441;-77
2020/12/31 04:24:19;;;;;;;0.60;0.40;;;;;;;4.45;91.91;99989.41;5033668;28;20439;-77
2020/12/31 04:26:49;;;;;;;1.00;0.53;;;;;;;4.45;92.10;99984.03;5033409;28;20450;-78
2020/12/31 04:29:15;;;;;;;0.40;0.30;;;;;;;4.44;92.48;99985.91;5033668;28;20996;-77
2020/12/31 04:31:41;;;;;;;0.40;0.30;;;;;;;4.36;92.43;99988.38;5034228;28;20439;-78
2020/12/31 04:34:07;;;;;;;0.40;0.30;;;;;;;4.33;92.85;99991.59;5033342;28;20856;-77
2020/12/31 04:36:34;;;;;;;1.13;0.50;;;;;;;4.32;93.00;99992.66;5033636;28;20866;-78
2020/12/31 04:39:01;;;;;;;0.80;0.60;;;;;;;4.26;92.67;99990.00;5033681;28;20517;-78
2020/12/31 04:41:27;;;;;;;0.40;0.30;;;;;;;4.29;92.76;99992.16;5034365;28;20443;-78
2020/12/31 04:43:55;;;;;;;0.60;0.50;;;;;;;4.26;92.93;99992.69;5037272;28;20505;-78
2020/12/31 04:46:22;;;;;;;0.63;0.40;;;;;;;4.25;93.68;99992.94;5038170;28;20454;-78
2020/12/31 04:48:56;;;;;;;0.40;0.30;;;;;;;4.22;93.17;99991.63;5037411;28;20467;-78
2020/12/31 04:51:26;;;;;;;0.50;0.40;;;;;;;4.19;93.98;99994.84;5037718;28;20478;-78
2020/12/31 04:53:55;;;;;;;2.83;0.60;;;;;;;4.22;93.54;99997.00;5037730;28;20558;-77
2020/12/31 04:56:26;;;;;;;0.40;0.30;;;;;;;4.22;93.08;99998.88;5037712;28;20443;-78
2020/12/31 04:58:54;;;;;;;0.40;0.30;;;;;;;4.21;93.07;100006.13;5037167;28;20486;-77
2020/12/31 05:01:21;;;;;;;0.40;0.20;;;;;;;4.21;93.44;100005.31;5037696;28;20447;-78
2020/12/31 05:03:47;;;;;;;0.40;0.30;;;;;;;4.22;93.19;100010.41;5037392;28;20451;-78
2020/12/31 05:06:16;;;;;;;0.70;0.40;;;;;;;4.20;93.16;100009.84;5037341;28;20533;-78
2020/12/31 05:08:44;;;;;;;0.87;0.70;;;;;;;4.21;93.49;100014.16;5036861;28;20896;-77
2020/12/31 05:11:11;;;;;;;0.50;0.40;;;;;;;4.24;93.10;100015.47;5036602;28;21225;-78
2020/12/31 05:13:44;;;;;;;2.43;0.93;;;;;;;4.19;92.49;100018.97;5036975;28;20487;-78
2020/12/31 05:16:10;;;;;;;0.40;0.30;;;;;;;4.21;92.34;100018.72;5037292;28;20506;-78
2020/12/31 05:18:37;;;;;;;0.70;0.53;;;;;;;4.20;92.31;100020.56;5036734;28;20477;-78
2020/12/31 05:21:15;;;;;;;2.10;0.60;;;;;;;4.16;92.84;100018.72;5037174;28;20450;-78
2020/12/31 05:23:43;;;;;;;0.50;0.50;;;;;;;4.15;92.61;100019.78;5036901;28;20518;-77
2020/12/31 05:26:09;;;;;;;0.40;0.30;;;;;;;4.10;92.26;100019.81;5036840;28;20879;-78
2020/12/31 05:28:37;;;;;;;0.60;0.40;;;;;;;4.02;92.02;100018.47;5036249;28;20474;-78
2020/12/31 05:31:10;;;;;;;1.90;1.80;;;;;;;3.96;92.28;100024.94;5036562;28;20898;-78
2020/12/31 05:34:26;;;;;;;0.40;0.20;;;;;;;3.92;92.62;100029.22;5036619;28;20537;-77
2020/12/31 05:36:53;;;;;;;0.40;0.20;;;;;;;3.88;92.35;100022.78;5036527;28;20474;-77
2020/12/31 05:39:19;;;;;;;0.40;0.30;;;;;;;3.84;92.37;100030.56;5036551;28;20532;-77
2020/12/31 05:41:45;;;;;;;0.40;0.20;;;;;;;3.82;92.35;100029.25;5036583;28;20447;-77
2020/12/31 05:44:12;;;;;;;0.40;0.30;;;;;;;3.67;91.58;100022.81;5036000;28;20797;-77
2020/12/31 05:46:39;;;;;;;0.57;0.50;;;;;;;3.57;91.27;100035.41;5036294;28;20454;-77
2020/12/31 05:49:08;;;;;;;0.40;0.30;;;;;;;3.55;91.20;100038.34;5035995;28;20482;-77
2020/12/31 05:51:35;;;;;;;0.40;0.30;;;;;;;3.50;91.64;100033.81;5036196;28;20445;-77
2020/12/31 05:54:06;;;;;;;0.40;0.30;;;;;;;3.44;91.79;100039.41;5036023;28;20490;-77
2020/12/31 05:56:33;;;;;;;0.70;0.70;;;;;;;3.36;92.57;100042.63;5036644;28;20872;-77
2020/12/31 05:59:07;;;;;;;0.40;0.30;;;;;;;3.37;92.58;100034.34;5035665;28;21011;-78
2020/12/31 06:01:38;;;;;;;0.40;0.40;;;;;;;3.33;93.42;100038.63;5036216;28;20537;-78
2020/12/31 06:04:21;;;;;;;1.10;0.63;;;;;;;3.23;93.38;100043.94;5035917;28;20448;-78
2020/12/31 06:06:50;;;;;;;0.40;0.33;;;;;;;3.20;93.55;100045.28;5034942;28;20498;-78
2020/12/31 06:09:27;;;;;;;0.50;0.40;;;;;;;3.20;93.59;100039.94;5035836;28;20470;-77
2020/12/31 06:11:58;;;;;;;0.40;0.33;;;;;;;3.17;94.00;100047.69;5035834;28;20420;-77
2020/12/31 06:14:27;;;;;;;0.67;0.50;;;;;;;3.17;94.19;100040.47;5035557;28;21010;-78
2020/12/31 06:16:56;;;;;;;0.40;0.30;;;;;;;3.17;93.72;100045.81;5035552;28;21011;-78
2020/12/31 06:19:31;;;;;;;0.80;0.80;;;;;;;3.16;93.97;100033.50;5035927;28;20457;-77
2020/12/31 06:22:02;;;;;;;5.13;2.73;;;;;;;3.17;94.17;100035.09;5035367;28;20438;-77
2020/12/31 06:24:34;;;;;;;0.60;0.60;;;;;;;3.18;93.76;100044.72;5035543;28;20497;-78
2020/12/31 06:27:11;;;;;;;0.80;0.80;;;;;;;3.20;93.75;100060.53;5035813;28;20431;-78
2020/12/31 06:29:45;;;;;;;0.40;0.30;;;;;;;3.13;94.36;100051.94;5035149;28;20447;-78
2020/12/31 06:32:17;;;;;;;0.70;0.37;;;;;;;3.10;93.98;100058.66;5035335;28;20450;-77
2020/12/31 06:34:45;;;;;;;0.40;0.27;;;;;;;3.06;93.78;100060.25;5035674;28;20836;-77
2020/12/31 06:37:13;;;;;;;0.87;0.77;;;;;;;2.97;93.34;100049.25;5034843;28;20503;-77
2020/12/31 06:39:40;;;;;;;0.50;0.30;;;;;;;2.89;92.50;100060.47;5034876;28;20471;-76
2020/12/31 06:42:06;;;;;;;0.40;0.30;;;;;;;2.75;92.37;100065.50;5035167;28;20531;-76
2020/12/31 06:44:33;;;;;;;0.40;0.30;;;;;;;2.71;92.30;100068.97;5034695;28;20927;-76
2020/12/31 06:46:59;;;;;;;0.90;0.47;;;;;;;2.64;92.39;100071.88;5034643;28;20443;-76
2020/12/31 06:49:51;;;;;;;0.40;0.20;;;;;;;2.61;92.02;100076.91;5034869;28;20463;-76
2020/12/31 06:52:19;;;;;;;1.37;0.57;;;;;;;2.49;92.08;100080.63;5034769;28;21067;-77
2020/12/31 06:54:45;;;;;;;0.97;0.77;;;;;;;2.44;92.30;100085.16;5034415;28;20493;-76
2020/12/31 06:57:11;;;;;;;0.50;0.40;;;;;;;2.33;92.52;100081.59;5034315;28;20457;-76
2020/12/31 06:59:38;;;;;;;0.40;0.20;;;;;;;2.33;92.70;100088.81;5034540;28;20482;-77
2020/12/31 07:02:21;;;;;;;0.40;0.30;;;;;;;2.27;92.63;100091.47;5034653;28;20458;-76
2020/12/31 07:04:47;;;;;;;1.53;0.73;;;;;;;2.18;92.89;100084.19;5034299;28;20423;-76
2020/12/31 07:07:26;;;;;;;0.43;0.40;;;;;;;2.19;92.92;100085.78;5033630;28;20442;-76
2020/12/31 07:09:54;;;;;;;0.50;0.50;;;;;;;2.11;93.30;100087.06;5034752;28;20408;-76
2020/12/31 07:12:33;;;;;;;0.50;0.40;;;;;;;2.10;92.86;100088.13;5034412;28;20458;-77
2020/12/31 07:14:59;;;;;;;1.23;0.70;;;;;;;2.11;93.04;100089.75;5034290;28;21054;-77
2020/12/31 07:17:31;;;;;;;8.97;1.23;;;;;;;2.01;93.75;100081.66;5034151;28;20801;-77
2020/12/31 07:20:00;;;;;;;3.80;0.67;;;;;;;2.07;94.25;100079.84;5034335;28;20446;-77
2020/12/31 07:22:29;;;;;;;0.40;0.30;;;;;;;2.10;94.09;100084.66;5034555;28;20447;-77
2020/12/31 07:24:58;;;;;;;0.87;0.87;;;;;;;2.06;93.77;100078.22;5034277;28;20451;-77
2020/12/31 07:27:29;;;;;;;0.40;0.30;;;;;;;2.03;93.78;100079.53;5034318;28;20814;-77
2020/12/31 07:29:57;;;;;;;0.40;0.30;;;;;;;2.01;94.92;100077.13;5034310;28;20459;-77
2020/12/31 07:32:57;;;;;;;0.40;0.30;;;;;;;2.02;95.44;100080.59;5034172;28;20447;-77
2020/12/31 07:35:29;;;;;;;0.77;0.77;;;;;;;1.97;95.99;100092.06;5034093;28;20486;-77
2020/12/31 07:37:58;;;;;;;1.13;1.07;;;;;;;2.01;96.13;100081.66;5033868;28;20858;-77
2020/12/31 07:40:33;;;;;;;1.23;0.40;;;;;;;2.03;96.00;100085.69;5034081;28;20485;-77
2020/12/31 07:42:59;;;;;;;0.60;0.40;;;;;;;2.09;95.55;100091.88;5033723;28;20453;-77
2020/12/31 07:45:26;;;;;;;3.50;0.60;;;;;;;2.12;95.79;100083.34;5033417;28;20443;-77
2020/12/31 07:47:53;;;;;;;2.00;0.60;;;;;;;2.14;95.87;100091.91;5033489;28;20477;-77
2020/12/31 07:50:20;;;;;;;0.40;0.30;;;;;;;2.15;95.94;100093.50;5033707;28;20443;-77
2020/12/31 07:52:47;;;;;;;0.40;0.30;;;;;;;2.17;96.32;100094.06;5033913;28;20857;-76
2020/12/31 07:55:14;;;;;;;0.40;0.30;;;;;;;2.24;96.36;100101.84;5033746;28;20486;-76
2020/12/31 07:57:41;;;;;;;0.40;0.30;;;;;;;2.29;95.94;100096.53;5033493;28;20512;-76
2020/12/31 08:00:07;;;;;;;0.40;0.30;;;;;;;2.35;95.78;100097.41;5033925;28;20799;-76
2020/12/31 08:02:34;;;;;;;1.70;0.53;;;;;;;2.33;95.78;100102.19;5033700;28;20455;-76
2020/12/31 08:05:10;;;;;;;0.50;0.40;;;;;;;2.28;94.66;100111.75;5033389;28;20862;-76
2020/12/31 08:07:36;;;;;;;0.73;0.50;;;;;;;2.30;94.20;100103.47;5033587;28;20430;-76
2020/12/31 08:10:03;;;;;;;0.40;0.30;;;;;;;2.31;94.27;100112.34;5033667;28;20454;-76
2020/12/31 08:12:30;;;;;;;0.40;0.30;;;;;;;2.33;93.89;100110.19;5033582;28;20449;-77
2020/12/31 08:14:57;;;;;;;2.63;1.50;;;;;;;2.36;93.63;100110.47;5033447;28;20486;-77
2020/12/31 08:17:23;;;;;;;0.40;0.30;;;;;;;2.41;93.29;100112.38;5033004;28;20876;-77
2020/12/31 08:19:50;;;;;;;0.40;0.30;;;;;;;2.46;93.88;100115.09;5033483;28;20459;-77
2020/12/31 08:22:39;;;;;;;0.57;0.47;;;;;;;2.50;93.28;100110.81;5033511;28;20811;-77
2020/12/31 08:25:10;;;;;;;2.10;1.07;;;;;;;2.59;93.41;100113.81;5033627;28;20480;-77
2020/12/31 08:27:40;;;;;;;0.40;0.30;;;;;;;2.58;93.11;100115.69;5033408;28;20443;-77
2020/12/31 08:30:08;;;;;;;0.70;0.60;;;;;;;2.66;93.56;100120.53;5033608;28;20450;-77
2020/12/31 08:32:49;;;;;;;0.40;0.40;;;;;;;2.74;93.96;100120.03;5033375;28;20509;-77
2020/12/31 08:35:21;;;;;;;1.03;0.53;;;;;;;2.68;92.32;100113.06;5033258;28;20479;-77
2020/12/31 08:37:48;;;;;;;0.67;0.67;;;;;;;2.67;92.92;100114.13;5032827;28;20535;-77
2020/12/31 08:40:24;;;;;;;0.67;0.60;;;;;;;2.68;92.94;100113.06;5032859;28;20462;-77
2020/12/31 08:42:53;;;;;;;1.27;0.67;;;;;;;2.76;93.32;100112.56;5032217;28;20801;-77
2020/12/31 08:45:27;;;;;;;5.30;1.03;;;;;;;2.73;94.43;100105.06;5029169;28;20447;-77
2020/12/31 08:48:13;;;;;;;0.40;0.30;;;;;;;2.82;94.19;100112.59;5032253;28;20836;-77
2020/12/31 08:50:39;;;;;;;0.40;0.30;;;;;;;2.87;94.50;100113.41;5033117;28;21014;-77
2020/12/31 08:53:06;;;;;;;0.40;0.30;;;;;;;2.95;94.25;100112.09;5032584;28;20944;-77
2020/12/31 08:55:35;;;;;;;0.80;0.53;;;;;;;3.03;94.13;100117.75;5032614;28;20483;-77
2020/12/31 08:58:15;;;;;;;2.40;0.60;;;;;;;3.09;94.13;100117.75;5044443;22;21040;-69
2020/12/31 09:00:41;;;;;;;0.83;0.83;;;;;;;3.12;94.22;100120.72;5053007;28;20430;-69
2020/12/31 09:03:08;;;;;;;0.70;0.63;;;;;;;3.20;93.72;100124.75;5052581;28;20458;-69
2020/12/31 09:05:34;;;;;;;0.40;0.30;;;;;;;3.26;93.24;100124.50;5052534;28;20977;-70
2020/12/31 09:08:05;;;;;;;0.50;0.40;;;;;;;3.30;93.51;100119.44;5052701;28;20442;-70
2020/12/31 09:10:33;;;;;;;0.40;0.30;;;;;;;3.38;93.22;100126.16;5052583;28;20798;-68
2020/12/31 09:13:00;;;;;;;2.87;0.83;;;;;;;3.45;92.30;100121.31;5052237;28;20466;-69
2020/12/31 09:15:27;;;;;;;1.23;0.77;;;;;;;3.45;92.58;100119.47;5052458;28;20490;-69
2020/12/31 09:17:54;;;;;;;0.40;0.30;;;;;;;3.50;92.20;100130.19;5052286;28;20981;-67
2020/12/31 09:20:22;;;;;;;0.40;0.30;;;;;;;3.58;92.15;100128.03;5052092;28;20947;-68
2020/12/31 09:22:49;;;;;;;0.60;0.60;;;;;;;3.60;91.96;100124.03;5052377;28;20502;-69
2020/12/31 09:25:16;;;;;;;0.90;0.70;;;;;;;3.65;91.92;100128.59;5052462;28;20457;-69
2020/12/31 09:27:45;;;;;;;1.73;0.93;;;;;;;3.69;90.83;100114.41;5052433;28;20439;-68
2020/12/31 09:30:13;;;;;;;0.40;0.30;;;;;;;3.72;91.01;100121.13;5055032;28;20449;-68
2020/12/31 09:32:45;;;;;;;2.30;0.70;;;;;;;3.73;91.47;100126.19;5055898;28;20465;-68
2020/12/31 09:35:11;;;;;;;0.70;0.53;;;;;;;3.79;91.18;100121.63;5055484;28;20477;-68
2020/12/31 09:37:55;;;;;;;0.40;0.30;;;;;;;3.82;90.03;100121.13;5055724;28;20446;-68
2020/12/31 09:40:21;;;;;;;1.70;0.77;;;;;;;3.82;90.48;100120.31;5055758;28;20431;-67
2020/12/31 09:42:47;;;;;;;0.60;0.50;;;;;;;3.87;90.27;100128.34;5055331;28;20512;-68
2020/12/31 09:45:14;;;;;;;0.63;0.63;;;;;;;3.86;89.97;100121.38;5054887;28;20810;-69
2020/12/31 09:47:41;;;;;;;0.40;0.30;;;;;;;3.94;89.79;100120.81;5055315;28;20472;-68
2020/12/31 09:50:10;;;;;;;0.40;0.30;;;;;;;3.97;89.66;100120.31;5055868;28;20512;-68
2020/12/31 09:52:37;;;;;;;0.60;0.60;;;;;;;4.06;89.63;100121.38;5055202;28;20976;-68
2020/12/31 09:55:06;;;;;;;0.50;0.40;;;;;;;4.10;89.27;100125.13;5055192;28;20987;-67
2020/12/31 09:57:33;;;;;;;2.03;1.30;;;;;;;4.22;88.76;100116.81;5055128;28;20438;-68
2020/12/31 09:59:59;;;;;;;1.40;0.80;;;;;;;4.28;88.34;100113.03;5055085;28;20450;-68
2020/12/31 10:02:25;;;;;;;0.90;0.90;;;;;;;4.29;88.14;100114.63;5055362;28;20843;-67
2020/12/31 10:04:52;;;;;;;0.40;0.30;;;;;;;4.36;87.39;100109.00;5055270;28;20446;-67
2020/12/31 10:07:19;;;;;;;1.37;0.80;;;;;;;4.33;86.82;100109.53;5055324;28;20442;-68
2020/12/31 10:09:45;;;;;;;1.00;0.90;;;;;;;4.42;86.89;100105.22;5055339;28;20446;-67
2020/12/31 10:12:13;;;;;;;0.40;0.20;;;;;;;4.48;86.36;100106.84;5055178;28;20501;-69
2020/12/31 10:14:39;;;;;;;0.93;0.93;;;;;;;4.50;86.57;100105.47;5054813;28;20992;-68
2020/12/31 10:17:05;;;;;;;1.53;1.30;;;;;;;4.52;87.26;100110.59;5055141;28;20450;-68
2020/12/31 10:19:31;;;;;;;0.70;0.70;;;;;;;4.67;87.13;100104.38;5054811;28;20955;-67
2020/12/31 10:21:58;;;;;;;0.40;0.30;;;;;;;4.62;86.22;100113.22;5055063;28;20819;-68
2020/12/31 10:24:24;;;;;;;1.07;0.70;;;;;;;4.63;86.26;100100.63;5057867;22;20499;-77
2020/12/31 10:26:51;;;;;;;0.97;0.37;;;;;;;4.73;86.58;100106.75;5036066;28;20455;-77
2020/12/31 10:29:17;;;;;;;0.50;0.47;;;;;;;4.83;86.08;100097.88;5035910;28;20466;-77
2020/12/31 10:31:49;;;;;;;0.60;0.60;;;;;;;4.83;85.07;100089.81;5035901;28;20435;-77
2020/12/31 10:34:15;;;;;;;0.40;0.30;;;;;;;4.82;85.33;100093.56;5035196;28;20485;-77
2020/12/31 10:36:41;;;;;;;0.40;0.30;;;;;;;4.89;85.00;100091.41;5036227;28;20447;-77
2020/12/31 10:39:08;;;;;;;0.40;0.30;;;;;;;4.89;84.31;100085.22;5035323;28;20470;-79
2020/12/31 10:41:35;;;;;;;0.50;0.50;;;;;;;4.92;84.73;100084.69;5034241;28;20451;-77
2020/12/31 10:44:01;;;;;;;0.40;0.30;;;;;;;4.92;84.68;100069.38;5035489;28;20454;-77
2020/12/31 10:46:27;;;;;;;0.40;0.30;;;;;;;4.99;84.80;100079.81;5035763;28;20447;-77
2020/12/31 10:48:54;;;;;;;1.37;0.50;;;;;;;5.07;84.19;100069.28;5035385;28;20976;-77
2020/12/31 10:51:20;;;;;;;0.40;0.30;;;;;;;5.06;83.55;100066.91;5035569;28;20505;-76
2020/12/31 10:53:47;;;;;;;0.40;0.30;;;;;;;5.13;82.94;100064.69;5035076;28;20446;-77
2020/12/31 10:56:19;;;;;;;0.40;0.30;;;;;;;5.16;82.93;100069.50;5035368;28;20478;-77
2020/12/31 10:58:46;;;;;;;0.50;0.50;;;;;;;5.24;82.55;100060.09;5035384;28;20494;-77
2020/12/31 11:01:14;;;;;;;1.27;0.93;;;;;;;5.35;82.02;100060.81;5035233;28;20452;-77
2020/12/31 11:03:42;;;;;;;0.50;0.50;;;;;;;5.42;81.79;100066.66;5035029;28;20505;-77
2020/12/31 11:06:09;;;;;;;0.80;0.50;;;;;;;5.47;81.46;100064.75;5034918;28;20443;-78
2020/12/31 11:08:35;;;;;;;0.40;0.40;;;;;;;5.52;80.72;100056.66;5034894;28;20475;-78
2020/12/31 11:11:01;;;;;;;0.40;0.30;;;;;;;5.51;80.68;100048.88;5035534;28;20447;-78
2020/12/31 11:13:28;;;;;;;1.60;0.80;;;;;;;5.55;80.57;100052.59;5034899;28;20451;-78
2020/12/31 11:15:55;;;;;;;0.40;0.30;;;;;;;5.59;80.20;100045.59;5022352;28;20558;-79
2020/12/31 11:18:21;;;;;;;0.40;0.30;;;;;;;5.72;80.21;100044.94;5014852;28;20471;-77
2020/12/31 11:20:52;;;;;;;0.40;0.30;;;;;;;5.60;79.46;100032.97;5015217;28;20503;-77
2020/12/31 11:23:18;;;;;;;2.87;2.20;;;;;;;5.61;79.29;100034.56;5015086;28;20540;-77
2020/12/31 11:25:45;;;;;;;0.40;0.30;;;;;;;5.69;79.49;100034.75;5021075;28;20971;-77
2020/12/31 11:28:11;;;;;;;1.03;0.63;;;;;;;5.80;78.75;100024.75;5032984;28;20459;-76
2020/12/31 11:30:39;;;;;;;0.47;0.37;;;;;;;5.87;78.73;100027.88;5014759;28;20444;-78
2020/12/31 11:33:05;;;;;;;0.40;0.30;;;;;;;5.96;77.91;100023.50;5014486;28;20440;-77
2020/12/31 11:35:31;;;;;;;0.40;0.30;;;;;;;6.06;77.96;100022.59;5030857;28;20857;-77
2020/12/31 11:37:57;;;;;;;0.50;0.37;;;;;;;6.22;78.15;100024.06;5034151;28;20447;-77
2020/12/31 11:40:23;;;;;;;0.60;0.53;;;;;;;6.38;78.16;100023.91;5033922;28;20435;-77